sensor_id;sensor_type;location;lat;lon;timestamp;P1;durP1;ratioP1;P2;durP2;ratioP2
47155;SDS011;32908;52.344;16.858;2022-09-11T00:00:17;16.97;;;12.33;;
47155;SDS011;32908;52.344;16.858;2022-09-11T00:03:08;15.53;;;12.67;;
47155;SDS011;32908;52.344;16.858;2022-09-11T00:05:40;18.63;;;12.87;;
47155;SDS011;32908;52.344;16.858;2022-09-11T00:08:12;15.60;;;11.60;;
47155;SDS011;32908;52.344;16.858;2022-09-11T00:10:45;15.63;;;12.47;;
47155;SDS011;32908;52.344;16.858;2022-09-11T00:13:17;16.10;;;12.10;;
47155;SDS011;32908;52.344;16.858;2022-09-11T00:15:50;15.27;;;11.93;;
47155;SDS011;32908;52.344;16.858;2022-09-11T00:18:21;16.77;;;12.57;;
47155;SDS011;32908;52.344;16.858;2022-09-11T00:20:53;17.10;;;12.30;;
47155;SDS011;32908;52.344;16.858;2022-09-11T00:23:25;16.40;;;12.05;;
47155;SDS011;32908;52.344;16.858;2022-09-11T00:25:59;16.97;;;12.93;;
47155;SDS011;32908;52.344;16.858;2022-09-11T00:28:31;17.65;;;11.90;;
47155;SDS011;32908;52.344;16.858;2022-09-11T00:31:04;16.47;;;11.80;;
47155;SDS011;32908;52.344;16.858;2022-09-11T00:33:36;13.33;;;11.23;;
47155;SDS011;32908;52.344;16.858;2022-09-11T00:36:09;16.40;;;12.23;;
47155;SDS011;32908;52.344;16.858;2022-09-11T00:38:42;17.60;;;12.23;;
47155;SDS011;32908;52.344;16.858;2022-09-11T00:41:15;16.53;;;12.43;;
47155;SDS011;32908;52.344;16.858;2022-09-11T00:43:51;14.60;;;11.60;;
47155;SDS011;32908;52.344;16.858;2022-09-11T00:46:25;17.13;;;11.23;;
47155;SDS011;32908;52.344;16.858;2022-09-11T00:49:03;15.57;;;11.17;;
47155;SDS011;32908;52.344;16.858;2022-09-11T00:51:41;15.53;;;11.30;;
47155;SDS011;32908;52.344;16.858;2022-09-11T00:54:16;15.03;;;11.43;;
47155;SDS011;32908;52.344;16.858;2022-09-11T00:56:51;15.50;;;11.60;;
47155;SDS011;32908;52.344;16.858;2022-09-11T00:59:24;16.10;;;11.57;;
47155;SDS011;32908;52.344;16.858;2022-09-11T01:01:58;14.80;;;11.77;;
47155;SDS011;32908;52.344;16.858;2022-09-11T01:04:29;14.97;;;11.60;;
47155;SDS011;32908;52.344;16.858;2022-09-11T01:07:00;14.23;;;11.00;;
47155;SDS011;32908;52.344;16.858;2022-09-11T01:09:33;16.50;;;10.63;;
47155;SDS011;32908;52.344;16.858;2022-09-11T01:12:05;17.50;;;11.87;;
47155;SDS011;32908;52.344;16.858;2022-09-11T01:14:43;13.90;;;11.63;;
47155;SDS011;32908;52.344;16.858;2022-09-11T01:17:22;16.90;;;11.90;;
47155;SDS011;32908;52.344;16.858;2022-09-11T01:22:54;14.57;;;11.43;;
47155;SDS011;32908;52.344;16.858;2022-09-11T01:25:35;14.70;;;10.47;;
47155;SDS011;32908;52.344;16.858;2022-09-11T01:28:16;12.60;;;10.03;;
47155;SDS011;32908;52.344;16.858;2022-09-11T01:30:53;19.73;;;11.23;;
47155;SDS011;32908;52.344;16.858;2022-09-11T01:33:26;16.40;;;10.50;;
47155;SDS011;32908;52.344;16.858;2022-09-11T01:36:01;16.30;;;11.00;;
47155;SDS011;32908;52.344;16.858;2022-09-11T01:38:34;13.80;;;10.50;;
47155;SDS011;32908;52.344;16.858;2022-09-11T01:41:10;17.07;;;10.83;;
47155;SDS011;32908;52.344;16.858;2022-09-11T01:43:45;17.23;;;10.17;;
47155;SDS011;32908;52.344;16.858;2022-09-11T01:46:19;15.23;;;10.18;;
47155;SDS011;32908;52.344;16.858;2022-09-11T01:48:53;13.70;;;10.10;;
47155;SDS011;32908;52.344;16.858;2022-09-11T01:51:30;12.93;;;9.90;;
47155;SDS011;32908;52.344;16.858;2022-09-11T01:54:03;13.57;;;10.60;;
47155;SDS011;32908;52.344;16.858;2022-09-11T01:56:40;14.57;;;10.87;;
47155;SDS011;32908;52.344;16.858;2022-09-11T01:59:13;15.23;;;10.73;;
47155;SDS011;32908;52.344;16.858;2022-09-11T02:01:46;15.03;;;9.80;;
47155;SDS011;32908;52.344;16.858;2022-09-11T02:04:19;14.90;;;10.37;;
47155;SDS011;32908;52.344;16.858;2022-09-11T02:06:54;13.50;;;9.73;;
47155;SDS011;32908;52.344;16.858;2022-09-11T02:12:00;12.57;;;9.00;;
47155;SDS011;32908;52.344;16.858;2022-09-11T02:14:35;12.00;;;9.30;;
47155;SDS011;32908;52.344;16.858;2022-09-11T02:17:12;13.60;;;9.63;;
47155;SDS011;32908;52.344;16.858;2022-09-11T02:19:46;12.73;;;9.33;;
47155;SDS011;32908;52.344;16.858;2022-09-11T02:22:17;13.13;;;9.23;;
47155;SDS011;32908;52.344;16.858;2022-09-11T02:24:50;16.15;;;10.10;;
47155;SDS011;32908;52.344;16.858;2022-09-11T02:27:22;13.57;;;10.27;;
47155;SDS011;32908;52.344;16.858;2022-09-11T02:29:54;14.27;;;9.87;;
47155;SDS011;32908;52.344;16.858;2022-09-11T02:32:26;12.20;;;9.23;;
47155;SDS011;32908;52.344;16.858;2022-09-11T02:34:57;14.40;;;10.10;;
47155;SDS011;32908;52.344;16.858;2022-09-11T02:37:32;11.47;;;9.63;;
47155;SDS011;32908;52.344;16.858;2022-09-11T02:40:17;15.57;;;10.70;;
47155;SDS011;32908;52.344;16.858;2022-09-11T02:43:00;14.60;;;10.33;;
47155;SDS011;32908;52.344;16.858;2022-09-11T02:46:02;14.87;;;10.70;;
47155;SDS011;32908;52.344;16.858;2022-09-11T02:48:42;14.97;;;9.60;;
47155;SDS011;32908;52.344;16.858;2022-09-11T02:51:19;14.57;;;10.00;;
47155;SDS011;32908;52.344;16.858;2022-09-11T02:53:57;17.47;;;9.93;;
47155;SDS011;32908;52.344;16.858;2022-09-11T02:56:38;15.93;;;10.13;;
47155;SDS011;32908;52.344;16.858;2022-09-11T02:59:11;13.47;;;10.20;;
47155;SDS011;32908;52.344;16.858;2022-09-11T03:01:47;16.80;;;9.50;;
47155;SDS011;32908;52.344;16.858;2022-09-11T03:04:20;12.90;;;9.10;;
47155;SDS011;32908;52.344;16.858;2022-09-11T03:06:55;15.83;;;9.53;;
47155;SDS011;32908;52.344;16.858;2022-09-11T03:09:26;13.17;;;9.47;;
47155;SDS011;32908;52.344;16.858;2022-09-11T03:11:58;13.97;;;8.83;;
47155;SDS011;32908;52.344;16.858;2022-09-11T03:14:30;12.13;;;9.20;;
47155;SDS011;32908;52.344;16.858;2022-09-11T03:17:01;11.00;;;9.00;;
47155;SDS011;32908;52.344;16.858;2022-09-11T03:19:32;12.80;;;9.20;;
47155;SDS011;32908;52.344;16.858;2022-09-11T03:22:03;13.17;;;8.40;;
47155;SDS011;32908;52.344;16.858;2022-09-11T03:24:34;9.80;;;7.93;;
47155;SDS011;32908;52.344;16.858;2022-09-11T03:27:07;8.70;;;7.63;;
47155;SDS011;32908;52.344;16.858;2022-09-11T03:29:38;12.45;;;8.40;;
47155;SDS011;32908;52.344;16.858;2022-09-11T03:32:09;9.93;;;7.90;;
47155;SDS011;32908;52.344;16.858;2022-09-11T03:34:42;10.70;;;8.03;;
47155;SDS011;32908;52.344;16.858;2022-09-11T03:37:14;14.37;;;8.00;;
47155;SDS011;32908;52.344;16.858;2022-09-11T03:39:45;9.47;;;7.47;;
47155;SDS011;32908;52.344;16.858;2022-09-11T03:42:16;9.10;;;6.93;;
47155;SDS011;32908;52.344;16.858;2022-09-11T03:44:46;9.90;;;7.53;;
47155;SDS011;32908;52.344;16.858;2022-09-11T03:47:17;9.70;;;6.93;;
47155;SDS011;32908;52.344;16.858;2022-09-11T03:49:49;10.23;;;8.17;;
47155;SDS011;32908;52.344;16.858;2022-09-11T03:52:21;14.07;;;7.97;;
47155;SDS011;32908;52.344;16.858;2022-09-11T03:54:51;9.23;;;7.23;;
47155;SDS011;32908;52.344;16.858;2022-09-11T03:57:22;10.63;;;7.40;;
47155;SDS011;32908;52.344;16.858;2022-09-11T03:59:53;10.97;;;8.00;;
47155;SDS011;32908;52.344;16.858;2022-09-11T04:02:25;10.27;;;7.70;;
47155;SDS011;32908;52.344;16.858;2022-09-11T04:04:56;12.10;;;8.20;;
47155;SDS011;32908;52.344;16.858;2022-09-11T04:07:27;11.03;;;8.13;;
47155;SDS011;32908;52.344;16.858;2022-09-11T04:09:59;11.03;;;8.60;;
47155;SDS011;32908;52.344;16.858;2022-09-11T04:12:30;11.80;;;9.05;;
47155;SDS011;32908;52.344;16.858;2022-09-11T04:15:02;11.33;;;8.60;;
47155;SDS011;32908;52.344;16.858;2022-09-11T04:17:34;13.37;;;8.60;;
47155;SDS011;32908;52.344;16.858;2022-09-11T04:20:05;11.17;;;7.77;;
47155;SDS011;32908;52.344;16.858;2022-09-11T04:22:38;14.07;;;8.63;;
47155;SDS011;32908;52.344;16.858;2022-09-11T04:25:09;11.00;;;8.20;;
47155;SDS011;32908;52.344;16.858;2022-09-11T04:27:40;11.20;;;8.20;;
47155;SDS011;32908;52.344;16.858;2022-09-11T04:30:12;11.25;;;8.20;;
47155;SDS011;32908;52.344;16.858;2022-09-11T04:32:43;13.93;;;8.70;;
47155;SDS011;32908;52.344;16.858;2022-09-11T04:35:14;10.00;;;8.03;;
47155;SDS011;32908;52.344;16.858;2022-09-11T04:37:46;12.23;;;9.10;;
47155;SDS011;32908;52.344;16.858;2022-09-11T04:40:17;12.10;;;9.07;;
47155;SDS011;32908;52.344;16.858;2022-09-11T04:42:48;12.63;;;8.50;;
47155;SDS011;32908;52.344;16.858;2022-09-11T04:45:20;10.55;;;8.15;;
47155;SDS011;32908;52.344;16.858;2022-09-11T04:47:51;12.40;;;8.07;;
47155;SDS011;32908;52.344;16.858;2022-09-11T04:50:24;12.25;;;8.55;;
47155;SDS011;32908;52.344;16.858;2022-09-11T04:52:57;11.30;;;8.83;;
47155;SDS011;32908;52.344;16.858;2022-09-11T04:55:29;11.40;;;9.10;;
47155;SDS011;32908;52.344;16.858;2022-09-11T04:58:01;13.67;;;9.20;;
47155;SDS011;32908;52.344;16.858;2022-09-11T05:00:32;11.43;;;8.57;;
47155;SDS011;32908;52.344;16.858;2022-09-11T05:03:03;10.70;;;9.30;;
47155;SDS011;32908;52.344;16.858;2022-09-11T05:05:34;11.17;;;9.20;;
47155;SDS011;32908;52.344;16.858;2022-09-11T05:08:06;15.07;;;9.37;;
47155;SDS011;32908;52.344;16.858;2022-09-11T05:10:38;14.13;;;9.03;;
47155;SDS011;32908;52.344;16.858;2022-09-11T05:13:13;12.57;;;9.47;;
47155;SDS011;32908;52.344;16.858;2022-09-11T05:15:44;13.13;;;9.80;;
47155;SDS011;32908;52.344;16.858;2022-09-11T05:18:14;14.20;;;9.40;;
47155;SDS011;32908;52.344;16.858;2022-09-11T05:20:46;15.33;;;9.50;;
47155;SDS011;32908;52.344;16.858;2022-09-11T05:23:17;13.67;;;9.43;;
47155;SDS011;32908;52.344;16.858;2022-09-11T05:25:48;15.35;;;10.40;;
47155;SDS011;32908;52.344;16.858;2022-09-11T05:28:19;16.53;;;10.63;;
47155;SDS011;32908;52.344;16.858;2022-09-11T05:30:50;15.17;;;11.20;;
47155;SDS011;32908;52.344;16.858;2022-09-11T05:33:22;15.73;;;11.20;;
47155;SDS011;32908;52.344;16.858;2022-09-11T05:35:54;15.60;;;11.23;;
47155;SDS011;32908;52.344;16.858;2022-09-11T05:38:33;18.27;;;11.60;;
47155;SDS011;32908;52.344;16.858;2022-09-11T05:41:05;16.73;;;11.57;;
47155;SDS011;32908;52.344;16.858;2022-09-11T05:43:39;14.97;;;11.37;;
47155;SDS011;32908;52.344;16.858;2022-09-11T05:46:11;14.80;;;11.53;;
47155;SDS011;32908;52.344;16.858;2022-09-11T05:48:44;15.23;;;12.07;;
47155;SDS011;32908;52.344;16.858;2022-09-11T05:51:16;16.07;;;12.23;;
47155;SDS011;32908;52.344;16.858;2022-09-11T05:53:50;17.47;;;12.27;;
47155;SDS011;32908;52.344;16.858;2022-09-11T05:56:22;16.13;;;12.13;;
47155;SDS011;32908;52.344;16.858;2022-09-11T05:58:55;16.40;;;11.73;;
47155;SDS011;32908;52.344;16.858;2022-09-11T06:01:27;14.30;;;11.70;;
47155;SDS011;32908;52.344;16.858;2022-09-11T06:03:59;17.07;;;11.90;;
47155;SDS011;32908;52.344;16.858;2022-09-11T06:06:30;16.70;;;12.30;;
47155;SDS011;32908;52.344;16.858;2022-09-11T06:09:01;12.30;;;10.23;;
47155;SDS011;32908;52.344;16.858;2022-09-11T06:11:32;13.47;;;10.40;;
47155;SDS011;32908;52.344;16.858;2022-09-11T06:14:04;12.30;;;9.90;;
47155;SDS011;32908;52.344;16.858;2022-09-11T06:16:35;12.57;;;10.03;;
47155;SDS011;32908;52.344;16.858;2022-09-11T06:19:07;14.15;;;10.70;;
47155;SDS011;32908;52.344;16.858;2022-09-11T06:21:38;13.07;;;10.03;;
47155;SDS011;32908;52.344;16.858;2022-09-11T06:24:10;12.07;;;9.77;;
47155;SDS011;32908;52.344;16.858;2022-09-11T06:26:41;11.80;;;9.30;;
47155;SDS011;32908;52.344;16.858;2022-09-11T06:29:13;13.70;;;9.40;;
47155;SDS011;32908;52.344;16.858;2022-09-11T06:31:46;9.57;;;7.87;;
47155;SDS011;32908;52.344;16.858;2022-09-11T06:34:18;12.40;;;8.37;;
47155;SDS011;32908;52.344;16.858;2022-09-11T06:36:50;9.60;;;8.07;;
47155;SDS011;32908;52.344;16.858;2022-09-11T06:39:21;9.70;;;8.27;;
47155;SDS011;32908;52.344;16.858;2022-09-11T06:41:53;9.97;;;8.33;;
47155;SDS011;32908;52.344;16.858;2022-09-11T06:44:25;8.47;;;6.90;;
47155;SDS011;32908;52.344;16.858;2022-09-11T06:46:55;7.93;;;7.13;;
47155;SDS011;32908;52.344;16.858;2022-09-11T06:49:27;9.60;;;6.80;;
47155;SDS011;32908;52.344;16.858;2022-09-11T06:51:58;7.77;;;6.50;;
47155;SDS011;32908;52.344;16.858;2022-09-11T06:54:30;7.07;;;6.13;;
47155;SDS011;32908;52.344;16.858;2022-09-11T06:57:00;8.67;;;6.03;;
47155;SDS011;32908;52.344;16.858;2022-09-11T06:59:32;7.60;;;6.13;;
47155;SDS011;32908;52.344;16.858;2022-09-11T07:02:03;6.50;;;5.60;;
47155;SDS011;32908;52.344;16.858;2022-09-11T07:04:36;7.30;;;5.80;;
47155;SDS011;32908;52.344;16.858;2022-09-11T07:07:08;6.17;;;5.57;;
47155;SDS011;32908;52.344;16.858;2022-09-11T07:09:40;6.80;;;5.00;;
47155;SDS011;32908;52.344;16.858;2022-09-11T07:12:11;5.63;;;4.73;;
47155;SDS011;32908;52.344;16.858;2022-09-11T07:14:43;5.20;;;4.70;;
47155;SDS011;32908;52.344;16.858;2022-09-11T07:17:14;6.07;;;5.47;;
47155;SDS011;32908;52.344;16.858;2022-09-11T07:19:46;6.20;;;5.60;;
47155;SDS011;32908;52.344;16.858;2022-09-11T07:22:17;6.30;;;5.70;;
47155;SDS011;32908;52.344;16.858;2022-09-11T07:24:49;6.93;;;5.73;;
47155;SDS011;32908;52.344;16.858;2022-09-11T07:27:21;6.73;;;5.53;;
47155;SDS011;32908;52.344;16.858;2022-09-11T07:29:52;6.07;;;5.47;;
47155;SDS011;32908;52.344;16.858;2022-09-11T07:32:24;6.23;;;5.63;;
47155;SDS011;32908;52.344;16.858;2022-09-11T07:34:55;7.57;;;5.87;;
47155;SDS011;32908;52.344;16.858;2022-09-11T07:37:29;8.13;;;5.93;;
47155;SDS011;32908;52.344;16.858;2022-09-11T07:40:00;6.60;;;5.70;;
47155;SDS011;32908;52.344;16.858;2022-09-11T07:42:31;6.67;;;5.93;;
47155;SDS011;32908;52.344;16.858;2022-09-11T07:45:02;6.30;;;5.70;;
47155;SDS011;32908;52.344;16.858;2022-09-11T07:47:34;7.33;;;5.83;;
47155;SDS011;32908;52.344;16.858;2022-09-11T07:50:06;7.35;;;6.30;;
47155;SDS011;32908;52.344;16.858;2022-09-11T07:52:37;7.07;;;5.97;;
47155;SDS011;32908;52.344;16.858;2022-09-11T07:55:09;7.20;;;5.67;;
47155;SDS011;32908;52.344;16.858;2022-09-11T07:57:41;6.87;;;6.10;;
47155;SDS011;32908;52.344;16.858;2022-09-11T08:00:13;5.93;;;5.30;;
47155;SDS011;32908;52.344;16.858;2022-09-11T08:02:45;6.37;;;5.57;;
47155;SDS011;32908;52.344;16.858;2022-09-11T08:05:17;6.20;;;5.60;;
47155;SDS011;32908;52.344;16.858;2022-09-11T08:07:48;6.05;;;5.45;;
47155;SDS011;32908;52.344;16.858;2022-09-11T08:10:19;5.83;;;5.33;;
47155;SDS011;32908;52.344;16.858;2022-09-11T08:12:50;6.63;;;5.33;;
47155;SDS011;32908;52.344;16.858;2022-09-11T08:15:22;7.87;;;5.63;;
47155;SDS011;32908;52.344;16.858;2022-09-11T08:17:54;8.10;;;5.63;;
47155;SDS011;32908;52.344;16.858;2022-09-11T08:20:26;7.57;;;5.50;;
47155;SDS011;32908;52.344;16.858;2022-09-11T08:22:57;5.83;;;5.17;;
47155;SDS011;32908;52.344;16.858;2022-09-11T08:25:28;6.53;;;5.77;;
47155;SDS011;32908;52.344;16.858;2022-09-11T08:27:59;6.43;;;5.23;;
47155;SDS011;32908;52.344;16.858;2022-09-11T08:30:33;7.13;;;5.30;;
47155;SDS011;32908;52.344;16.858;2022-09-11T08:33:05;5.73;;;4.97;;
47155;SDS011;32908;52.344;16.858;2022-09-11T08:35:37;5.73;;;4.70;;
47155;SDS011;32908;52.344;16.858;2022-09-11T08:38:08;5.33;;;4.53;;
47155;SDS011;32908;52.344;16.858;2022-09-11T08:40:39;5.57;;;4.80;;
47155;SDS011;32908;52.344;16.858;2022-09-11T08:43:12;7.20;;;4.73;;
47155;SDS011;32908;52.344;16.858;2022-09-11T08:45:47;5.90;;;4.75;;
47155;SDS011;32908;52.344;16.858;2022-09-11T08:48:24;5.67;;;4.20;;
47155;SDS011;32908;52.344;16.858;2022-09-11T08:50:58;5.22;;;4.72;;
47155;SDS011;32908;52.344;16.858;2022-09-11T08:53:29;6.33;;;4.20;;
47155;SDS011;32908;52.344;16.858;2022-09-11T08:56:03;5.63;;;4.50;;
47155;SDS011;32908;52.344;16.858;2022-09-11T08:58:40;5.87;;;4.33;;
47155;SDS011;32908;52.344;16.858;2022-09-11T09:01:20;6.30;;;4.30;;
47155;SDS011;32908;52.344;16.858;2022-09-11T09:04:00;5.47;;;4.03;;
47155;SDS011;32908;52.344;16.858;2022-09-11T09:09:33;7.63;;;4.10;;
47155;SDS011;32908;52.344;16.858;2022-09-11T09:12:13;4.90;;;4.40;;
47155;SDS011;32908;52.344;16.858;2022-09-11T09:14:53;4.90;;;4.03;;
47155;SDS011;32908;52.344;16.858;2022-09-11T09:17:35;5.47;;;3.77;;
47155;SDS011;32908;52.344;16.858;2022-09-11T09:20:10;4.93;;;4.00;;
47155;SDS011;32908;52.344;16.858;2022-09-11T09:22:45;3.70;;;3.03;;
47155;SDS011;32908;52.344;16.858;2022-09-11T09:25:19;4.00;;;2.77;;
47155;SDS011;32908;52.344;16.858;2022-09-11T09:27:52;3.73;;;3.00;;
47155;SDS011;32908;52.344;16.858;2022-09-11T09:30:27;6.17;;;3.00;;
47155;SDS011;32908;52.344;16.858;2022-09-11T09:33:03;3.17;;;2.30;;
47155;SDS011;32908;52.344;16.858;2022-09-11T09:35:41;4.00;;;2.50;;
47155;SDS011;32908;52.344;16.858;2022-09-11T09:38:14;5.10;;;2.23;;
47155;SDS011;32908;52.344;16.858;2022-09-11T09:40:50;3.27;;;2.20;;
47155;SDS011;32908;52.344;16.858;2022-09-11T09:43:33;4.80;;;2.87;;
47155;SDS011;32908;52.344;16.858;2022-09-11T09:46:16;5.13;;;3.13;;
47155;SDS011;32908;52.344;16.858;2022-09-11T09:48:52;5.97;;;2.57;;
47155;SDS011;32908;52.344;16.858;2022-09-11T09:51:24;3.03;;;2.47;;
47155;SDS011;32908;52.344;16.858;2022-09-11T09:53:55;3.87;;;2.60;;
47155;SDS011;32908;52.344;16.858;2022-09-11T09:56:29;2.63;;;2.30;;
47155;SDS011;32908;52.344;16.858;2022-09-11T09:59:18;3.27;;;2.70;;
47155;SDS011;32908;52.344;16.858;2022-09-11T10:01:53;3.57;;;2.60;;
47155;SDS011;32908;52.344;16.858;2022-09-11T10:04:25;2.83;;;2.53;;
47155;SDS011;32908;52.344;16.858;2022-09-11T10:07:05;4.60;;;2.53;;
47155;SDS011;32908;52.344;16.858;2022-09-11T10:09:44;3.80;;;2.93;;
47155;SDS011;32908;52.344;16.858;2022-09-11T10:12:18;5.35;;;3.15;;
47155;SDS011;32908;52.344;16.858;2022-09-11T10:14:52;3.40;;;2.90;;
47155;SDS011;32908;52.344;16.858;2022-09-11T10:20:20;3.63;;;2.60;;
47155;SDS011;32908;52.344;16.858;2022-09-11T10:23:19;4.03;;;3.17;;
47155;SDS011;32908;52.344;16.858;2022-09-11T10:25:52;3.43;;;2.60;;
47155;SDS011;32908;52.344;16.858;2022-09-11T10:28:25;3.13;;;2.23;;
47155;SDS011;32908;52.344;16.858;2022-09-11T10:30:59;2.53;;;2.33;;
47155;SDS011;32908;52.344;16.858;2022-09-11T10:33:32;5.83;;;2.60;;
47155;SDS011;32908;52.344;16.858;2022-09-11T10:36:06;3.60;;;2.20;;
47155;SDS011;32908;52.344;16.858;2022-09-11T10:38:45;4.07;;;2.80;;
47155;SDS011;32908;52.344;16.858;2022-09-11T10:41:17;2.97;;;2.57;;
47155;SDS011;32908;52.344;16.858;2022-09-11T10:43:55;4.50;;;2.80;;
47155;SDS011;32908;52.344;16.858;2022-09-11T10:46:30;3.40;;;2.50;;
47155;SDS011;32908;52.344;16.858;2022-09-11T10:49:16;3.40;;;2.57;;
47155;SDS011;32908;52.344;16.858;2022-09-11T10:52:02;4.20;;;2.80;;
47155;SDS011;32908;52.344;16.858;2022-09-11T10:54:55;2.93;;;2.40;;
47155;SDS011;32908;52.344;16.858;2022-09-11T10:57:29;4.17;;;2.83;;
47155;SDS011;32908;52.344;16.858;2022-09-11T11:00:07;6.63;;;2.80;;
47155;SDS011;32908;52.344;16.858;2022-09-11T11:02:44;3.90;;;2.93;;
47155;SDS011;32908;52.344;16.858;2022-09-11T11:05:19;4.97;;;2.90;;
47155;SDS011;32908;52.344;16.858;2022-09-11T11:08:06;5.40;;;3.00;;
47155;SDS011;32908;52.344;16.858;2022-09-11T11:11:02;3.73;;;2.70;;
47155;SDS011;32908;52.344;16.858;2022-09-11T11:13:46;4.70;;;3.37;;
47155;SDS011;32908;52.344;16.858;2022-09-11T11:16:45;3.67;;;2.83;;
47155;SDS011;32908;52.344;16.858;2022-09-11T11:19:30;4.53;;;3.40;;
47155;SDS011;32908;52.344;16.858;2022-09-11T11:22:11;4.10;;;2.80;;
47155;SDS011;32908;52.344;16.858;2022-09-11T11:24:55;6.27;;;3.63;;
47155;SDS011;32908;52.344;16.858;2022-09-11T11:30:39;3.93;;;3.20;;
47155;SDS011;32908;52.344;16.858;2022-09-11T11:33:20;5.83;;;3.27;;
47155;SDS011;32908;52.344;16.858;2022-09-11T11:36:13;4.77;;;3.20;;
47155;SDS011;32908;52.344;16.858;2022-09-11T11:38:50;3.10;;;2.70;;
47155;SDS011;32908;52.344;16.858;2022-09-11T11:41:28;4.00;;;3.00;;
47155;SDS011;32908;52.344;16.858;2022-09-11T11:44:02;3.77;;;3.07;;
47155;SDS011;32908;52.344;16.858;2022-09-11T11:46:35;3.43;;;3.07;;
47155;SDS011;32908;52.344;16.858;2022-09-11T11:49:09;5.17;;;3.47;;
47155;SDS011;32908;52.344;16.858;2022-09-11T11:51:45;5.40;;;3.63;;
47155;SDS011;32908;52.344;16.858;2022-09-11T11:54:21;8.77;;;7.33;;
47155;SDS011;32908;52.344;16.858;2022-09-11T11:56:58;4.83;;;3.93;;
47155;SDS011;32908;52.344;16.858;2022-09-11T11:59:32;4.73;;;3.50;;
47155;SDS011;32908;52.344;16.858;2022-09-11T12:02:13;6.15;;;3.90;;
47155;SDS011;32908;52.344;16.858;2022-09-11T12:04:48;5.03;;;4.17;;
47155;SDS011;32908;52.344;16.858;2022-09-11T12:07:23;7.60;;;4.10;;
47155;SDS011;32908;52.344;16.858;2022-09-11T12:09:57;4.57;;;3.73;;
47155;SDS011;32908;52.344;16.858;2022-09-11T12:12:31;4.70;;;3.70;;
47155;SDS011;32908;52.344;16.858;2022-09-11T12:15:06;4.53;;;4.13;;
47155;SDS011;32908;52.344;16.858;2022-09-11T12:17:44;6.55;;;5.10;;
47155;SDS011;32908;52.344;16.858;2022-09-11T12:20:31;6.43;;;3.97;;
47155;SDS011;32908;52.344;16.858;2022-09-11T12:23:06;5.97;;;4.33;;
47155;SDS011;32908;52.344;16.858;2022-09-11T12:26:03;5.50;;;3.80;;
47155;SDS011;32908;52.344;16.858;2022-09-11T12:28:43;7.30;;;4.17;;
47155;SDS011;32908;52.344;16.858;2022-09-11T12:31:14;4.93;;;3.93;;
47155;SDS011;32908;52.344;16.858;2022-09-11T12:33:53;5.07;;;4.53;;
47155;SDS011;32908;52.344;16.858;2022-09-11T12:36:26;6.33;;;5.10;;
47155;SDS011;32908;52.344;16.858;2022-09-11T12:39:01;6.62;;;4.70;;
47155;SDS011;32908;52.344;16.858;2022-09-11T12:41:35;7.87;;;4.60;;
47155;SDS011;32908;52.344;16.858;2022-09-11T12:44:16;5.60;;;4.30;;
47155;SDS011;32908;52.344;16.858;2022-09-11T12:49:38;5.80;;;4.73;;
47155;SDS011;32908;52.344;16.858;2022-09-11T12:52:35;7.57;;;6.03;;
47155;SDS011;32908;52.344;16.858;2022-09-11T12:55:22;6.53;;;5.37;;
47155;SDS011;32908;52.344;16.858;2022-09-11T12:58:02;7.10;;;4.47;;
47155;SDS011;32908;52.344;16.858;2022-09-11T13:00:38;6.57;;;4.33;;
47155;SDS011;32908;52.344;16.858;2022-09-11T13:03:15;6.23;;;4.30;;
47155;SDS011;32908;52.344;16.858;2022-09-11T13:05:52;6.85;;;4.30;;
47155;SDS011;32908;52.344;16.858;2022-09-11T13:08:28;4.57;;;4.03;;
47155;SDS011;32908;52.344;16.858;2022-09-11T13:14:07;6.97;;;4.40;;
47155;SDS011;32908;52.344;16.858;2022-09-11T13:17:20;5.93;;;4.57;;
47155;SDS011;32908;52.344;16.858;2022-09-11T13:20:09;6.80;;;4.53;;
47155;SDS011;32908;52.344;16.858;2022-09-11T13:22:51;5.55;;;4.20;;
47155;SDS011;32908;52.344;16.858;2022-09-11T13:25:23;5.23;;;4.60;;
47155;SDS011;32908;52.344;16.858;2022-09-11T13:27:55;6.50;;;4.93;;
47155;SDS011;32908;52.344;16.858;2022-09-11T13:30:32;8.00;;;5.20;;
47155;SDS011;32908;52.344;16.858;2022-09-11T13:33:04;6.57;;;5.20;;
47155;SDS011;32908;52.344;16.858;2022-09-11T13:35:37;9.37;;;4.93;;
47155;SDS011;32908;52.344;16.858;2022-09-11T13:38:11;5.83;;;4.87;;
47155;SDS011;32908;52.344;16.858;2022-09-11T13:40:46;10.65;;;5.97;;
47155;SDS011;32908;52.344;16.858;2022-09-11T13:43:22;6.07;;;4.57;;
47155;SDS011;32908;52.344;16.858;2022-09-11T13:46:14;8.17;;;4.73;;
47155;SDS011;32908;52.344;16.858;2022-09-11T13:48:53;5.67;;;4.50;;
47155;SDS011;32908;52.344;16.858;2022-09-11T13:51:27;5.63;;;4.60;;
47155;SDS011;32908;52.344;16.858;2022-09-11T13:54:02;8.03;;;4.73;;
47155;SDS011;32908;52.344;16.858;2022-09-11T13:57:04;7.03;;;4.37;;
47155;SDS011;32908;52.344;16.858;2022-09-11T13:59:46;5.27;;;4.10;;
47155;SDS011;32908;52.344;16.858;2022-09-11T14:02:43;5.90;;;4.10;;
47155;SDS011;32908;52.344;16.858;2022-09-11T14:05:17;5.23;;;3.83;;
47155;SDS011;32908;52.344;16.858;2022-09-11T14:07:53;5.77;;;3.87;;
47155;SDS011;32908;52.344;16.858;2022-09-11T14:10:27;6.50;;;3.90;;
47155;SDS011;32908;52.344;16.858;2022-09-11T14:13:09;4.73;;;4.23;;
47155;SDS011;32908;52.344;16.858;2022-09-11T14:15:46;6.95;;;3.90;;
47155;SDS011;32908;52.344;16.858;2022-09-11T14:18:30;5.73;;;4.20;;
47155;SDS011;32908;52.344;16.858;2022-09-11T14:21:05;6.00;;;3.93;;
47155;SDS011;32908;52.344;16.858;2022-09-11T14:23:43;5.00;;;3.80;;
47155;SDS011;32908;52.344;16.858;2022-09-11T14:26:19;6.07;;;3.80;;
47155;SDS011;32908;52.344;16.858;2022-09-11T14:31:50;4.90;;;3.35;;
47155;SDS011;32908;52.344;16.858;2022-09-11T14:34:22;3.67;;;2.87;;
47155;SDS011;32908;52.344;16.858;2022-09-11T14:36:56;3.25;;;2.75;;
47155;SDS011;32908;52.344;16.858;2022-09-11T14:39:35;4.60;;;2.80;;
47155;SDS011;32908;52.344;16.858;2022-09-11T14:44:40;3.23;;;2.90;;
47155;SDS011;32908;52.344;16.858;2022-09-11T14:47:13;4.47;;;3.13;;
47155;SDS011;32908;52.344;16.858;2022-09-11T14:49:45;4.23;;;2.90;;
47155;SDS011;32908;52.344;16.858;2022-09-11T14:52:19;5.03;;;3.33;;
47155;SDS011;32908;52.344;16.858;2022-09-11T14:54:51;4.17;;;3.10;;
47155;SDS011;32908;52.344;16.858;2022-09-11T14:57:25;3.40;;;2.65;;
47155;SDS011;32908;52.344;16.858;2022-09-11T15:00:00;3.75;;;3.30;;
47155;SDS011;32908;52.344;16.858;2022-09-11T15:02:33;3.97;;;3.40;;
47155;SDS011;32908;52.344;16.858;2022-09-11T15:05:08;5.07;;;3.20;;
47155;SDS011;32908;52.344;16.858;2022-09-11T15:07:43;4.97;;;3.33;;
47155;SDS011;32908;52.344;16.858;2022-09-11T15:10:16;4.43;;;3.40;;
47155;SDS011;32908;52.344;16.858;2022-09-11T15:12:47;4.23;;;3.43;;
47155;SDS011;32908;52.344;16.858;2022-09-11T15:15:19;4.95;;;4.00;;
47155;SDS011;32908;52.344;16.858;2022-09-11T15:17:50;6.43;;;3.27;;
47155;SDS011;32908;52.344;16.858;2022-09-11T15:20:22;3.97;;;3.23;;
47155;SDS011;32908;52.344;16.858;2022-09-11T15:22:54;4.30;;;2.90;;
47155;SDS011;32908;52.344;16.858;2022-09-11T15:25:27;5.33;;;2.70;;
47155;SDS011;32908;52.344;16.858;2022-09-11T15:28:01;4.77;;;2.80;;
47155;SDS011;32908;52.344;16.858;2022-09-11T15:30:33;3.70;;;2.97;;
47155;SDS011;32908;52.344;16.858;2022-09-11T15:33:05;3.90;;;2.97;;
47155;SDS011;32908;52.344;16.858;2022-09-11T15:35:35;6.17;;;2.70;;